createdAt,value
2023-03-01T00:02:26.738Z,6.75
2023-03-01T00:04:54.574Z,8.77
2023-03-01T00:07:22.309Z,7.28
2023-03-01T00:09:50.358Z,6.80
2023-03-01T00:12:18.079Z,7.22
2023-03-01T00:14:47.188Z,8.00
2023-03-01T00:17:14.968Z,7.70
2023-03-01T00:19:42.782Z,7.00
2023-03-01T00:22:10.499Z,7.57
2023-03-01T00:24:38.178Z,7.88
2023-03-01T00:27:05.955Z,7.10
2023-03-01T00:29:33.705Z,6.68
2023-03-01T00:32:03.033Z,6.75
2023-03-01T00:34:30.737Z,8.05
2023-03-01T00:37:05.907Z,8.18
2023-03-01T00:39:34.343Z,8.07
2023-03-01T00:42:02.106Z,8.60
2023-03-01T00:44:29.796Z,7.50
2023-03-01T00:46:57.689Z,7.68
2023-03-01T00:49:28.616Z,7.32
2023-03-01T00:51:56.336Z,7.25
2023-03-01T00:54:24.172Z,7.50
2023-03-01T00:56:51.902Z,7.80
2023-03-01T00:59:19.684Z,7.07
2023-03-01T01:01:47.457Z,8.25
2023-03-01T01:04:15.793Z,8.05
2023-03-01T01:06:46.442Z,7.68
2023-03-01T01:09:18.834Z,8.10
2023-03-01T01:11:47.553Z,8.05
2023-03-01T01:14:15.375Z,7.20
2023-03-01T01:16:43.125Z,8.05
2023-03-01T01:19:12.212Z,7.90
2023-03-01T01:21:39.974Z,7.88
2023-03-01T01:24:09.636Z,7.18
2023-03-01T01:26:37.379Z,8.60
2023-03-01T01:29:06.927Z,8.35
2023-03-01T01:31:35.892Z,7.72
2023-03-01T01:34:05.822Z,8.07
2023-03-01T01:36:34.575Z,9.07
2023-03-01T01:39:02.997Z,7.82
2023-03-01T01:41:32.706Z,8.70
2023-03-01T01:44:15.993Z,9.95
2023-03-01T01:46:46.338Z,10.40
2023-03-01T01:49:22.693Z,9.05
2023-03-01T01:51:53.390Z,9.93
2023-03-01T01:54:25.381Z,9.40
2023-03-01T01:56:59.376Z,8.52
2023-03-01T01:59:30.545Z,8.73
2023-03-01T02:02:01.403Z,8.32
2023-03-01T02:04:29.588Z,8.48
2023-03-01T02:07:02.306Z,8.90
2023-03-01T02:09:32.582Z,9.38
2023-03-01T02:12:03.095Z,9.88
2023-03-01T02:14:30.832Z,9.25
2023-03-01T02:16:58.699Z,9.13
2023-03-01T02:19:41.456Z,8.95
2023-03-01T02:22:19.447Z,8.95
2023-03-01T02:24:54.229Z,9.00
2023-03-01T02:27:28.064Z,9.00
2023-03-01T02:29:57.854Z,8.88
2023-03-01T02:32:26.436Z,9.05
2023-03-01T02:34:55.713Z,9.85
2023-03-01T02:37:25.711Z,9.32
2023-03-01T02:39:58.681Z,8.68
2023-03-01T02:42:30.282Z,9.00
2023-03-01T02:44:59.386Z,9.55
2023-03-01T02:47:27.202Z,10.20
2023-03-01T02:49:54.935Z,10.52
2023-03-01T02:52:47.485Z,9.70
2023-03-01T02:55:18.502Z,8.80
2023-03-01T02:57:51.581Z,9.65
2023-03-01T03:00:25.857Z,9.10
2023-03-01T03:02:57.723Z,10.30
2023-03-01T03:05:27.109Z,10.63
2023-03-01T03:07:54.893Z,8.50
2023-03-01T03:10:25.376Z,9.40
2023-03-01T03:12:54.232Z,8.38
2023-03-01T03:15:24.257Z,9.07
2023-03-01T03:17:53.587Z,9.18
2023-03-01T03:20:25.175Z,10.35
2023-03-01T03:22:55.090Z,9.35
2023-03-01T03:25:23.690Z,10.48
2023-03-01T03:27:57.386Z,9.55
2023-03-01T03:30:28.312Z,9.23
2023-03-01T03:32:56.859Z,9.30
2023-03-01T03:35:27.426Z,9.82
2023-03-01T03:38:04.179Z,10.27
2023-03-01T03:40:33.886Z,9.75
2023-03-01T03:43:01.691Z,9.80
2023-03-01T03:45:34.089Z,10.32
2023-03-01T03:48:02.510Z,10.10
2023-03-01T03:50:30.397Z,9.18
2023-03-01T03:52:58.280Z,10.35
2023-03-01T03:55:30.920Z,10.00
2023-03-01T03:58:02.972Z,10.43
2023-03-01T04:00:32.122Z,10.05
2023-03-01T04:02:59.863Z,10.65
2023-03-01T04:05:28.124Z,10.00
2023-03-01T04:08:07.928Z,10.38
2023-03-01T04:10:38.238Z,9.43
2023-03-01T04:13:06.475Z,11.50
2023-03-01T04:15:36.520Z,10.95
2023-03-01T04:18:05.794Z,10.82
2023-03-01T04:20:36.471Z,10.48
2023-03-01T04:23:11.426Z,10.18
2023-03-01T04:25:40.732Z,10.50
2023-03-01T04:28:09.383Z,11.30
2023-03-01T04:30:39.354Z,11.13
2023-03-01T04:33:08.529Z,10.75
2023-03-01T04:35:37.694Z,10.68
2023-03-01T04:38:06.361Z,11.18
2023-03-01T04:40:34.676Z,10.48
2023-03-01T04:43:03.061Z,10.60
2023-03-01T04:45:30.918Z,9.90
2023-03-01T04:48:00.143Z,10.65
2023-03-01T04:50:27.965Z,10.48
2023-03-01T04:52:59.304Z,10.52
2023-03-01T04:55:27.681Z,10.63
2023-03-01T04:57:55.559Z,11.32
2023-03-01T05:00:24.260Z,11.18
2023-03-01T05:02:55.125Z,10.48
2023-03-01T05:05:26.980Z,12.73
2023-03-01T05:07:56.096Z,10.77
2023-03-01T05:10:24.268Z,11.45
2023-03-01T05:12:53.041Z,10.55
2023-03-01T05:15:22.542Z,10.55
2023-03-01T05:17:50.575Z,11.02
2023-03-01T05:20:18.438Z,11.10
2023-03-01T05:22:47.571Z,10.35
2023-03-01T05:25:15.832Z,10.65
2023-03-01T05:27:43.584Z,10.98
2023-03-01T05:30:16.210Z,10.27
2023-03-01T05:32:46.842Z,10.48
2023-03-01T05:35:16.824Z,10.68
2023-03-01T05:37:45.940Z,10.45
2023-03-01T05:40:17.354Z,10.75
2023-03-01T05:42:46.438Z,11.70
2023-03-01T05:45:15.689Z,10.63
2023-03-01T05:47:46.527Z,11.07
2023-03-01T05:50:19.415Z,11.50
2023-03-01T05:52:49.279Z,10.90
2023-03-01T05:55:19.741Z,10.35
2023-03-01T05:57:47.994Z,10.88
2023-03-01T06:00:18.764Z,12.73
2023-03-01T06:02:46.958Z,10.88
2023-03-01T06:05:15.832Z,10.57
2023-03-01T06:07:44.851Z,10.70
2023-03-01T06:10:14.616Z,10.88
2023-03-01T06:12:44.628Z,10.95
2023-03-01T06:15:13.658Z,10.18
2023-03-01T06:17:42.935Z,9.68
2023-03-01T06:20:13.783Z,10.60
2023-03-01T06:22:41.665Z,10.88
2023-03-01T06:25:10.887Z,9.93
2023-03-01T06:27:38.868Z,10.07
2023-03-01T06:30:11.474Z,10.48
2023-03-01T06:32:42.731Z,10.20
2023-03-01T06:35:11.888Z,10.95
2023-03-01T06:37:40.053Z,10.27
2023-03-01T06:40:12.254Z,10.98
2023-03-01T06:42:41.180Z,10.32
2023-03-01T06:45:11.699Z,10.40
2023-03-01T06:47:39.532Z,10.45
2023-03-01T06:50:08.188Z,9.75
2023-03-01T06:52:36.077Z,10.43
2023-03-01T06:55:04.063Z,10.07
2023-03-01T06:57:31.874Z,10.75
2023-03-01T06:59:59.697Z,9.35
2023-03-01T07:02:28.897Z,10.93
2023-03-01T07:04:56.681Z,10.60
2023-03-01T07:07:24.648Z,9.68
2023-03-01T07:09:52.459Z,12.00
2023-03-01T07:12:20.137Z,10.50
2023-03-01T07:14:47.868Z,10.48
2023-03-01T07:17:15.624Z,11.18
2023-03-01T07:19:45.839Z,10.27
2023-03-01T07:22:13.635Z,11.05
2023-03-01T07:24:42.466Z,10.73
2023-03-01T07:27:10.320Z,10.10
2023-03-01T07:29:38.348Z,19.67
2023-03-01T07:32:07.202Z,13.13
2023-03-01T07:34:35.154Z,16.10
2023-03-01T07:37:04.287Z,17.65
2023-03-01T07:39:31.999Z,11.13
2023-03-01T07:41:59.710Z,10.27
2023-03-01T07:44:27.466Z,10.18
2023-03-01T07:46:57.244Z,10.50
2023-03-01T07:49:27.179Z,11.85
2023-03-01T07:51:54.976Z,10.73
2023-03-01T07:54:24.327Z,11.32
2023-03-01T07:56:52.761Z,11.15
2023-03-01T07:59:20.567Z,10.00
2023-03-01T08:01:48.368Z,12.13
2023-03-01T08:04:16.104Z,11.98
2023-03-01T08:06:43.781Z,10.70
2023-03-01T08:09:11.488Z,12.05
2023-03-01T08:11:40.557Z,10.27
2023-03-01T08:14:08.441Z,11.18
2023-03-01T08:16:36.501Z,10.75
2023-03-01T08:19:07.030Z,16.08
2023-03-01T08:21:36.316Z,12.05
2023-03-01T08:24:04.581Z,12.05
2023-03-01T08:26:32.811Z,12.15
2023-03-01T08:29:02.763Z,11.32
2023-03-01T08:31:33.182Z,11.75
2023-03-01T08:34:02.807Z,12.30
2023-03-01T08:36:33.085Z,12.50
2023-03-01T08:39:01.540Z,11.20
2023-03-01T08:41:29.683Z,12.60
2023-03-01T08:43:59.884Z,12.65
2023-03-01T08:46:30.519Z,11.68
2023-03-01T08:48:58.608Z,12.65
2023-03-01T08:51:27.743Z,11.98
2023-03-01T08:53:55.444Z,18.00
2023-03-01T08:56:23.168Z,12.93
2023-03-01T08:58:51.304Z,12.57
2023-03-01T09:01:22.234Z,13.18
2023-03-01T09:03:53.373Z,12.27
2023-03-01T09:06:23.296Z,16.05
2023-03-01T09:08:53.330Z,14.15
2023-03-01T09:11:24.913Z,15.48
2023-03-01T09:13:54.485Z,16.73
2023-03-01T09:16:25.369Z,13.35
2023-03-01T09:18:57.961Z,16.65
2023-03-01T09:21:39.497Z,14.95
2023-03-01T09:24:14.808Z,16.80
2023-03-01T09:26:44.783Z,13.45
2023-03-01T09:29:14.620Z,13.23
2023-03-01T09:31:44.790Z,39.28
2023-03-01T09:34:17.708Z,15.95
2023-03-01T09:36:47.507Z,12.35
2023-03-01T09:39:19.147Z,13.07
2023-03-01T09:41:53.205Z,12.20
2023-03-01T09:44:31.087Z,12.05
2023-03-01T09:47:01.337Z,12.30
2023-03-01T09:49:34.464Z,12.70
2023-03-01T09:52:10.160Z,12.00
2023-03-01T09:54:40.772Z,11.27
2023-03-01T09:57:19.556Z,12.32
2023-03-01T10:00:05.065Z,11.82
2023-03-01T10:02:40.966Z,13.20
2023-03-01T10:05:24.092Z,14.02
2023-03-01T10:08:01.208Z,13.93
2023-03-01T10:10:35.319Z,13.30
2023-03-01T10:13:10.641Z,12.18
2023-03-01T10:15:44.818Z,13.23
2023-03-01T10:18:19.044Z,12.77
2023-03-01T10:20:54.363Z,16.45
2023-03-01T10:23:22.150Z,15.60
2023-03-01T10:26:05.395Z,13.38
2023-03-01T10:28:43.318Z,15.27
2023-03-01T10:31:16.168Z,12.85
2023-03-01T10:33:44.138Z,11.70
2023-03-01T10:36:13.292Z,13.23
2023-03-01T10:38:53.285Z,12.18
2023-03-01T10:41:21.595Z,12.32
2023-03-01T10:43:52.488Z,13.07
2023-03-01T10:46:28.404Z,12.27
2023-03-01T10:49:15.214Z,13.38
2023-03-01T10:51:46.961Z,12.98
2023-03-01T10:54:20.191Z,12.85
2023-03-01T10:56:50.255Z,13.15
2023-03-01T10:59:30.247Z,11.95
2023-03-01T11:02:24.485Z,21.08
2023-03-01T11:05:00.926Z,16.17
2023-03-01T11:07:30.569Z,14.63
2023-03-01T11:09:58.394Z,13.02
2023-03-01T11:12:27.249Z,12.25
2023-03-01T11:14:56.598Z,12.32
2023-03-01T11:17:30.006Z,11.82
2023-03-01T11:20:15.241Z,12.02
2023-03-01T11:22:49.340Z,12.48
2023-03-01T11:25:19.267Z,12.35
2023-03-01T11:27:48.498Z,12.13
2023-03-01T11:30:21.915Z,15.32
2023-03-01T11:32:57.081Z,13.75
2023-03-01T11:35:27.692Z,13.05
2023-03-01T11:38:06.919Z,12.77
2023-03-01T11:40:41.311Z,13.20
2023-03-01T11:43:20.175Z,12.77
2023-03-01T11:46:03.758Z,10.30
2023-03-01T11:48:49.909Z,11.75
2023-03-01T11:51:25.309Z,15.65
2023-03-01T11:54:06.771Z,11.23
2023-03-01T11:56:38.251Z,10.80
2023-03-01T11:59:28.954Z,11.40
2023-03-01T12:02:18.360Z,11.00
2023-03-01T12:05:15.753Z,12.40
2023-03-01T12:07:55.010Z,10.30
2023-03-01T12:10:27.975Z,10.15
2023-03-01T12:13:15.929Z,10.48
2023-03-01T12:15:52.674Z,10.40
2023-03-01T12:18:54.403Z,10.32
2023-03-01T12:21:37.740Z,9.80
2023-03-01T12:24:21.672Z,11.43
2023-03-01T12:27:00.470Z,12.98
2023-03-01T12:29:36.400Z,12.70
2023-03-01T12:32:35.340Z,12.15
2023-03-01T12:35:34.808Z,12.20
2023-03-01T12:38:16.025Z,12.25
2023-03-01T12:41:12.346Z,11.45
2023-03-01T12:43:56.904Z,12.45
2023-03-01T12:46:38.032Z,11.63
2023-03-01T12:49:13.171Z,11.13
2023-03-01T12:51:44.339Z,12.60
2023-03-01T12:54:17.522Z,10.80
2023-03-01T12:56:53.072Z,11.98
2023-03-01T12:59:27.149Z,11.40
2023-03-01T13:01:59.069Z,10.90
2023-03-01T13:04:38.115Z,10.75
2023-03-01T13:07:21.376Z,10.55
2023-03-01T13:10:02.182Z,12.00
2023-03-01T13:13:03.064Z,11.93
2023-03-01T13:15:35.332Z,11.82
2023-03-01T13:18:05.953Z,12.63
2023-03-01T13:20:46.631Z,10.98
2023-03-01T13:23:27.085Z,11.63
2023-03-01T13:26:16.744Z,10.48
2023-03-01T13:28:56.858Z,11.10
2023-03-01T13:32:01.350Z,10.32
2023-03-01T13:34:58.453Z,10.32
2023-03-01T13:37:34.222Z,9.48
2023-03-01T13:40:06.464Z,10.25
2023-03-01T13:42:38.929Z,9.25
2023-03-01T13:45:23.307Z,9.13
2023-03-01T13:47:59.046Z,9.35
2023-03-01T13:50:32.311Z,9.43
2023-03-01T13:53:03.619Z,9.95
2023-03-01T13:55:40.254Z,10.32
2023-03-01T13:58:20.597Z,10.60
2023-03-01T14:00:48.359Z,9.32
2023-03-01T14:03:18.899Z,10.10
2023-03-01T14:06:14.561Z,10.20
2023-03-01T14:11:36.999Z,9.35
2023-03-01T14:14:20.789Z,9.63
2023-03-01T14:16:59.526Z,8.93
2023-03-01T14:19:33.826Z,10.02
2023-03-01T14:22:13.678Z,9.48
2023-03-01T14:24:48.247Z,10.00
2023-03-01T14:27:16.247Z,9.18
2023-03-01T14:29:44.097Z,9.68
2023-03-01T14:32:14.550Z,8.23
2023-03-01T14:34:46.721Z,8.40
2023-03-01T14:37:22.778Z,8.90
2023-03-01T14:39:51.145Z,9.00
2023-03-01T14:42:20.160Z,7.82
2023-03-01T14:44:50.792Z,8.80
2023-03-01T14:47:26.633Z,8.20
2023-03-01T14:49:59.220Z,8.63
2023-03-01T14:52:36.872Z,7.50
2023-03-01T14:55:08.890Z,8.82
2023-03-01T14:57:36.703Z,7.82
2023-03-01T15:00:08.568Z,8.48
2023-03-01T15:02:37.234Z,7.93
2023-03-01T15:05:08.910Z,7.90
2023-03-01T15:07:42.440Z,8.05
2023-03-01T15:10:21.292Z,8.45
2023-03-01T15:12:49.101Z,8.02
2023-03-01T15:15:37.991Z,8.50
2023-03-01T15:18:15.590Z,8.35
2023-03-01T15:20:43.637Z,9.10
2023-03-01T15:23:23.524Z,8.68
2023-03-01T15:25:57.339Z,8.65
2023-03-01T15:28:28.448Z,7.85
2023-03-01T15:31:02.725Z,8.27
2023-03-01T15:33:40.198Z,7.85
2023-03-01T15:36:43.337Z,7.82
2023-03-01T15:39:32.545Z,7.28
2023-03-01T15:42:00.803Z,7.93
2023-03-01T15:44:41.615Z,7.57
2023-03-01T15:47:26.737Z,9.55
2023-03-01T15:49:56.690Z,7.45
2023-03-01T15:52:30.095Z,7.90
2023-03-01T15:55:01.986Z,7.88
2023-03-01T15:57:29.931Z,8.35
2023-03-01T15:59:57.784Z,8.52
2023-03-01T16:02:26.526Z,7.28
2023-03-01T16:04:54.773Z,7.68
2023-03-01T16:07:22.511Z,7.35
2023-03-01T16:09:50.247Z,8.13
2023-03-01T16:12:21.375Z,10.30
2023-03-01T16:14:49.745Z,8.52
2023-03-01T16:17:17.566Z,8.55
2023-03-01T16:19:45.271Z,8.82
2023-03-01T16:22:13.332Z,8.05
2023-03-01T16:24:41.833Z,8.25
2023-03-01T16:27:09.991Z,8.98
2023-03-01T16:29:39.157Z,8.50
2023-03-01T16:32:07.464Z,8.13
2023-03-01T16:34:35.422Z,8.10
2023-03-01T16:37:03.201Z,8.50
2023-03-01T16:39:30.946Z,8.30
2023-03-01T16:42:01.584Z,8.52
2023-03-01T16:44:29.456Z,8.85
2023-03-01T16:46:59.129Z,8.15
2023-03-01T16:49:27.135Z,8.40
2023-03-01T16:51:56.011Z,7.22
2023-03-01T16:54:23.829Z,7.50
2023-03-01T16:56:51.664Z,8.13
2023-03-01T16:59:20.278Z,7.25
2023-03-01T17:01:48.430Z,7.70
2023-03-01T17:04:19.355Z,8.00
2023-03-01T17:06:47.666Z,7.50
2023-03-01T17:09:17.706Z,7.38
2023-03-01T17:11:45.785Z,8.30
2023-03-01T17:14:13.554Z,8.07
2023-03-01T17:16:41.359Z,7.68
2023-03-01T17:19:09.299Z,8.00
2023-03-01T17:21:38.687Z,7.63
2023-03-01T17:24:06.752Z,7.65
2023-03-01T17:26:34.509Z,7.18
2023-03-01T17:29:03.805Z,7.70
2023-03-01T17:31:32.244Z,10.45
2023-03-01T17:34:01.742Z,9.90
2023-03-01T17:36:29.732Z,9.95
2023-03-01T17:38:58.946Z,7.35
2023-03-01T17:41:27.075Z,7.93
2023-03-01T17:43:55.205Z,7.28
2023-03-01T17:46:24.221Z,7.82
2023-03-01T17:48:52.033Z,8.18
2023-03-01T17:51:20.004Z,6.75
2023-03-01T17:53:47.786Z,7.75
2023-03-01T17:56:17.130Z,7.35
2023-03-01T17:58:47.015Z,8.02
2023-03-01T18:01:17.526Z,8.57
2023-03-01T18:03:47.563Z,7.53
2023-03-01T18:06:17.632Z,7.63
2023-03-01T18:08:46.227Z,8.13
2023-03-01T18:11:15.881Z,7.78
2023-03-01T18:13:43.697Z,8.18
2023-03-01T18:16:13.525Z,7.00
2023-03-01T18:18:41.567Z,9.18
2023-03-01T18:21:10.533Z,8.80
2023-03-01T18:23:38.941Z,9.25
2023-03-01T18:26:09.250Z,8.98
2023-03-01T18:28:39.318Z,10.70
2023-03-01T18:31:10.693Z,11.90
2023-03-01T18:33:39.162Z,11.30
2023-03-01T18:36:16.830Z,11.52
2023-03-01T18:38:44.617Z,10.82
2023-03-01T18:41:12.549Z,11.00
2023-03-01T18:43:41.584Z,10.63
2023-03-01T18:46:09.396Z,9.52
2023-03-01T18:48:37.858Z,9.25
2023-03-01T18:51:10.549Z,8.73
2023-03-01T18:53:38.406Z,9.05
2023-03-01T18:56:07.467Z,10.25
2023-03-01T18:58:35.308Z,9.57
2023-03-01T19:01:07.799Z,8.95
2023-03-01T19:03:36.430Z,9.32
2023-03-01T19:06:05.098Z,9.27
2023-03-01T19:08:33.494Z,9.25
2023-03-01T19:11:03.261Z,9.82
2023-03-01T19:13:31.710Z,10.10
2023-03-01T19:16:06.954Z,10.77
2023-03-01T19:18:35.315Z,9.20
2023-03-01T19:21:05.206Z,10.40
2023-03-01T19:23:35.024Z,10.15
2023-03-01T19:26:04.501Z,10.02
2023-03-01T19:28:32.403Z,10.05
2023-03-01T19:31:02.239Z,10.55
2023-03-01T19:33:34.722Z,10.18
2023-03-01T19:36:03.606Z,10.13
2023-03-01T19:38:31.523Z,9.70
2023-03-01T19:40:59.484Z,11.05
2023-03-01T19:43:27.262Z,9.65
2023-03-01T19:45:55.925Z,9.93
2023-03-01T19:48:24.452Z,9.40
2023-03-01T19:50:54.476Z,9.85
2023-03-01T19:53:22.538Z,11.50
2023-03-01T19:55:53.002Z,9.07
2023-03-01T19:58:20.870Z,11.25
2023-03-01T20:00:48.783Z,9.68
2023-03-01T20:03:16.581Z,9.60
2023-03-01T20:05:44.616Z,10.52
2023-03-01T20:08:14.217Z,10.73
2023-03-01T20:10:43.302Z,9.85
2023-03-01T20:13:11.085Z,10.82
2023-03-01T20:15:42.512Z,11.00
2023-03-01T20:18:10.768Z,10.10
2023-03-01T20:20:38.847Z,9.85
2023-03-01T20:23:06.782Z,11.00
2023-03-01T20:25:35.928Z,11.00
2023-03-01T20:28:03.802Z,9.43
2023-03-01T20:30:31.524Z,10.80
2023-03-01T20:32:59.555Z,11.13
2023-03-01T20:35:28.136Z,11.57
2023-03-01T20:37:55.931Z,10.65
2023-03-01T20:40:26.942Z,10.88
2023-03-01T20:42:56.665Z,9.60
2023-03-01T20:45:28.025Z,10.63
2023-03-01T20:47:56.761Z,9.30
2023-03-01T20:50:24.577Z,9.32
2023-03-01T20:52:52.388Z,10.50
2023-03-01T20:55:20.475Z,10.90
2023-03-01T20:57:48.229Z,10.65
2023-03-01T21:00:18.108Z,9.85
2023-03-01T21:02:45.834Z,10.40
2023-03-01T21:05:13.738Z,10.15
2023-03-01T21:07:42.745Z,10.88
2023-03-01T21:10:11.956Z,11.00
2023-03-01T21:12:39.821Z,9.98
2023-03-01T21:15:09.713Z,11.27
2023-03-01T21:17:40.382Z,10.52
2023-03-01T21:20:09.484Z,9.75
2023-03-01T21:22:37.251Z,10.75
2023-03-01T21:25:06.121Z,10.25
2023-03-01T21:27:37.496Z,11.00
2023-03-01T21:30:06.201Z,10.48
2023-03-01T21:32:34.152Z,12.02
2023-03-01T21:35:03.681Z,11.65
2023-03-01T21:37:31.381Z,11.35
2023-03-01T21:39:59.249Z,11.68
2023-03-01T21:42:27.132Z,11.60
2023-03-01T21:44:54.970Z,11.35
2023-03-01T21:47:22.790Z,10.63
2023-03-01T21:49:50.678Z,11.32
2023-03-01T21:52:19.966Z,10.82
2023-03-01T21:54:51.072Z,11.13
2023-03-01T21:57:18.836Z,10.82
2023-03-01T21:59:46.773Z,11.60
2023-03-01T22:02:15.704Z,10.90
2023-03-01T22:04:43.441Z,11.82
2023-03-01T22:07:11.129Z,12.02
2023-03-01T22:09:40.438Z,11.30
2023-03-01T22:12:08.487Z,11.13
2023-03-01T22:14:36.456Z,12.48
2023-03-01T22:17:04.269Z,12.32
2023-03-01T22:19:32.204Z,11.43
2023-03-01T22:22:00.111Z,12.73
2023-03-01T22:24:28.594Z,11.43
2023-03-01T22:26:57.823Z,11.65
2023-03-01T22:29:28.838Z,11.50
2023-03-01T22:31:57.957Z,12.10
2023-03-01T22:34:26.496Z,11.82
2023-03-01T22:36:54.426Z,12.52
2023-03-01T22:39:22.706Z,12.70
2023-03-01T22:41:51.472Z,11.65
2023-03-01T22:44:22.704Z,13.23
2023-03-01T22:46:51.219Z,12.27
2023-03-01T22:49:19.740Z,11.95
2023-03-01T22:51:48.073Z,11.77
2023-03-01T22:54:17.723Z,13.30
2023-03-01T22:56:46.426Z,12.48
2023-03-01T22:59:16.235Z,12.07
2023-03-01T23:01:47.625Z,12.38
2023-03-01T23:04:15.834Z,13.27
2023-03-01T23:06:51.598Z,12.82
2023-03-01T23:09:20.786Z,12.73
2023-03-01T23:11:49.137Z,12.98
2023-03-01T23:14:17.087Z,12.32
2023-03-01T23:16:46.469Z,13.07
2023-03-01T23:19:16.362Z,13.43
2023-03-01T23:21:47.405Z,13.07
2023-03-01T23:24:15.636Z,13.10
2023-03-01T23:26:45.573Z,11.18
2023-03-01T23:29:13.800Z,12.43
2023-03-01T23:31:41.602Z,11.60
2023-03-01T23:34:10.758Z,12.15
2023-03-01T23:36:39.027Z,13.10
2023-03-01T23:39:07.533Z,12.82
2023-03-01T23:41:36.170Z,12.75
2023-03-01T23:44:05.664Z,14.13
2023-03-01T23:46:36.076Z,12.35
2023-03-01T23:49:04.527Z,14.25
2023-03-01T23:51:33.619Z,12.13
2023-03-01T23:54:05.305Z,13.70
2023-03-01T23:56:35.174Z,13.98
2023-03-01T23:59:05.966Z,13.10
